sensor_id;sensor_type;location;lat;lon;timestamp;P1;durP1;ratioP1;P2;durP2;ratioP2
19897;SDS011;10111;50.814;4.572;2023-04-10T00:02:12;11.33;;;7.83;;
19897;SDS011;10111;50.814;4.572;2023-04-10T00:04:38;11.60;;;8.37;;
19897;SDS011;10111;50.814;4.572;2023-04-10T00:07:04;10.57;;;8.23;;
19897;SDS011;10111;50.814;4.572;2023-04-10T00:09:30;11.60;;;8.20;;
19897;SDS011;10111;50.814;4.572;2023-04-10T00:11:55;10.23;;;7.83;;
19897;SDS011;10111;50.814;4.572;2023-04-10T00:14:21;10.97;;;7.93;;
19897;SDS011;10111;50.814;4.572;2023-04-10T00:16:48;9.90;;;8.10;;
19897;SDS011;10111;50.814;4.572;2023-04-10T00:19:14;8.33;;;6.93;;
19897;SDS011;10111;50.814;4.572;2023-04-10T00:21:41;9.67;;;8.03;;
19897;SDS011;10111;50.814;4.572;2023-04-10T00:24:07;10.13;;;7.03;;
19897;SDS011;10111;50.814;4.572;2023-04-10T00:26:33;10.03;;;6.87;;
19897;SDS011;10111;50.814;4.572;2023-04-10T00:28:59;8.97;;;7.10;;
19897;SDS011;10111;50.814;4.572;2023-04-10T00:31:26;9.23;;;7.83;;
19897;SDS011;10111;50.814;4.572;2023-04-10T00:33:51;8.57;;;6.77;;
19897;SDS011;10111;50.814;4.572;2023-04-10T00:36:17;13.37;;;7.43;;
19897;SDS011;10111;50.814;4.572;2023-04-10T00:38:43;8.83;;;6.83;;
19897;SDS011;10111;50.814;4.572;2023-04-10T00:41:08;8.63;;;6.50;;
19897;SDS011;10111;50.814;4.572;2023-04-10T00:43:35;9.33;;;7.10;;
19897;SDS011;10111;50.814;4.572;2023-04-10T00:46:00;8.90;;;6.53;;
19897;SDS011;10111;50.814;4.572;2023-04-10T00:48:26;11.03;;;7.07;;
19897;SDS011;10111;50.814;4.572;2023-04-10T00:50:52;7.33;;;6.63;;
19897;SDS011;10111;50.814;4.572;2023-04-10T00:53:18;8.07;;;5.80;;
19897;SDS011;10111;50.814;4.572;2023-04-10T00:55:45;9.13;;;6.20;;
19897;SDS011;10111;50.814;4.572;2023-04-10T00:58:13;9.73;;;6.50;;
19897;SDS011;10111;50.814;4.572;2023-04-10T01:00:39;8.13;;;6.20;;
19897;SDS011;10111;50.814;4.572;2023-04-10T01:03:06;7.10;;;6.27;;
19897;SDS011;10111;50.814;4.572;2023-04-10T01:05:34;7.63;;;6.83;;
19897;SDS011;10111;50.814;4.572;2023-04-10T01:08:08;8.17;;;6.17;;
19897;SDS011;10111;50.814;4.572;2023-04-10T01:10:50;8.60;;;6.53;;
19897;SDS011;10111;50.814;4.572;2023-04-10T01:13:57;8.03;;;5.90;;
19897;SDS011;10111;50.814;4.572;2023-04-10T01:16:30;9.30;;;6.77;;
19897;SDS011;10111;50.814;4.572;2023-04-10T01:19:24;6.67;;;5.77;;
19897;SDS011;10111;50.814;4.572;2023-04-10T01:21:49;6.43;;;5.83;;
19897;SDS011;10111;50.814;4.572;2023-04-10T01:24:20;10.23;;;6.43;;
19897;SDS011;10111;50.814;4.572;2023-04-10T01:27:08;10.97;;;6.63;;
19897;SDS011;10111;50.814;4.572;2023-04-10T01:29:51;7.37;;;5.63;;
19897;SDS011;10111;50.814;4.572;2023-04-10T01:32:20;7.33;;;6.23;;
19897;SDS011;10111;50.814;4.572;2023-04-10T01:34:50;7.10;;;5.73;;
19897;SDS011;10111;50.814;4.572;2023-04-10T01:37:26;9.63;;;6.83;;
19897;SDS011;10111;50.814;4.572;2023-04-10T01:39:59;7.97;;;6.23;;
19897;SDS011;10111;50.814;4.572;2023-04-10T01:42:27;8.00;;;6.47;;
19897;SDS011;10111;50.814;4.572;2023-04-10T01:44:56;8.93;;;6.40;;
19897;SDS011;10111;50.814;4.572;2023-04-10T01:47:23;7.57;;;6.13;;
19897;SDS011;10111;50.814;4.572;2023-04-10T01:49:50;7.23;;;5.80;;
19897;SDS011;10111;50.814;4.572;2023-04-10T01:52:18;8.33;;;6.70;;
19897;SDS011;10111;50.814;4.572;2023-04-10T01:54:45;8.70;;;6.17;;
19897;SDS011;10111;50.814;4.572;2023-04-10T01:57:15;11.00;;;6.33;;
19897;SDS011;10111;50.814;4.572;2023-04-10T01:59:41;6.83;;;5.40;;
19897;SDS011;10111;50.814;4.572;2023-04-10T02:02:08;7.90;;;5.87;;
19897;SDS011;10111;50.814;4.572;2023-04-10T02:04:36;8.40;;;6.53;;
19897;SDS011;10111;50.814;4.572;2023-04-10T02:07:02;8.73;;;5.80;;
19897;SDS011;10111;50.814;4.572;2023-04-10T02:12:10;9.00;;;5.67;;
19897;SDS011;10111;50.814;4.572;2023-04-10T02:14:41;6.10;;;5.40;;
19897;SDS011;10111;50.814;4.572;2023-04-10T02:17:10;8.10;;;6.37;;
19897;SDS011;10111;50.814;4.572;2023-04-10T02:19:40;7.83;;;5.87;;
19897;SDS011;10111;50.814;4.572;2023-04-10T02:22:06;6.13;;;5.00;;
19897;SDS011;10111;50.814;4.572;2023-04-10T02:24:32;8.93;;;6.80;;
19897;SDS011;10111;50.814;4.572;2023-04-10T02:26:59;7.97;;;5.87;;
19897;SDS011;10111;50.814;4.572;2023-04-10T02:29:25;7.33;;;5.60;;
19897;SDS011;10111;50.814;4.572;2023-04-10T02:31:51;7.07;;;5.43;;
19897;SDS011;10111;50.814;4.572;2023-04-10T02:34:16;7.50;;;6.57;;
19897;SDS011;10111;50.814;4.572;2023-04-10T02:36:42;6.53;;;4.87;;
19897;SDS011;10111;50.814;4.572;2023-04-10T02:39:08;7.60;;;5.83;;
19897;SDS011;10111;50.814;4.572;2023-04-10T02:41:33;9.83;;;5.60;;
19897;SDS011;10111;50.814;4.572;2023-04-10T02:43:59;7.00;;;6.00;;
19897;SDS011;10111;50.814;4.572;2023-04-10T02:46:25;7.73;;;5.70;;
19897;SDS011;10111;50.814;4.572;2023-04-10T02:48:51;8.97;;;5.80;;
19897;SDS011;10111;50.814;4.572;2023-04-10T02:51:17;7.73;;;6.57;;
19897;SDS011;10111;50.814;4.572;2023-04-10T02:53:43;5.13;;;4.63;;
19897;SDS011;10111;50.814;4.572;2023-04-10T02:56:08;8.63;;;6.00;;
19897;SDS011;10111;50.814;4.572;2023-04-10T02:58:35;7.40;;;5.07;;
19897;SDS011;10111;50.814;4.572;2023-04-10T03:01:01;7.40;;;5.67;;
19897;SDS011;10111;50.814;4.572;2023-04-10T03:03:28;8.03;;;5.53;;
19897;SDS011;10111;50.814;4.572;2023-04-10T03:05:54;6.90;;;5.63;;
19897;SDS011;10111;50.814;4.572;2023-04-10T03:08:21;7.83;;;5.50;;
19897;SDS011;10111;50.814;4.572;2023-04-10T03:10:47;5.90;;;4.90;;
19897;SDS011;10111;50.814;4.572;2023-04-10T03:13:13;6.13;;;5.27;;
19897;SDS011;10111;50.814;4.572;2023-04-10T03:15:39;8.23;;;6.33;;
19897;SDS011;10111;50.814;4.572;2023-04-10T03:18:05;9.03;;;5.70;;
19897;SDS011;10111;50.814;4.572;2023-04-10T03:20:31;6.83;;;5.33;;
19897;SDS011;10111;50.814;4.572;2023-04-10T03:22:58;6.43;;;5.07;;
19897;SDS011;10111;50.814;4.572;2023-04-10T03:25:24;7.40;;;6.00;;
19897;SDS011;10111;50.814;4.572;2023-04-10T03:27:50;7.50;;;6.00;;
19897;SDS011;10111;50.814;4.572;2023-04-10T03:30:16;6.93;;;6.07;;
19897;SDS011;10111;50.814;4.572;2023-04-10T03:32:41;8.47;;;6.27;;
19897;SDS011;10111;50.814;4.572;2023-04-10T03:35:08;8.07;;;6.53;;
19897;SDS011;10111;50.814;4.572;2023-04-10T03:37:34;5.73;;;4.97;;
19897;SDS011;10111;50.814;4.572;2023-04-10T03:40:00;7.37;;;6.00;;
19897;SDS011;10111;50.814;4.572;2023-04-10T03:42:25;8.10;;;6.17;;
19897;SDS011;10111;50.814;4.572;2023-04-10T03:44:51;7.50;;;5.97;;
19897;SDS011;10111;50.814;4.572;2023-04-10T03:47:17;8.83;;;6.03;;
19897;SDS011;10111;50.814;4.572;2023-04-10T03:49:42;8.53;;;6.30;;
19897;SDS011;10111;50.814;4.572;2023-04-10T03:52:08;8.47;;;6.30;;
19897;SDS011;10111;50.814;4.572;2023-04-10T03:54:34;8.00;;;5.37;;
19897;SDS011;10111;50.814;4.572;2023-04-10T03:57:00;6.17;;;4.90;;
19897;SDS011;10111;50.814;4.572;2023-04-10T03:59:25;7.90;;;5.33;;
19897;SDS011;10111;50.814;4.572;2023-04-10T04:01:51;7.27;;;5.27;;
19897;SDS011;10111;50.814;4.572;2023-04-10T04:04:17;9.37;;;6.20;;
19897;SDS011;10111;50.814;4.572;2023-04-10T04:06:43;8.43;;;6.10;;
19897;SDS011;10111;50.814;4.572;2023-04-10T04:09:08;6.70;;;5.23;;
19897;SDS011;10111;50.814;4.572;2023-04-10T04:11:34;8.23;;;5.37;;
19897;SDS011;10111;50.814;4.572;2023-04-10T04:14:00;6.90;;;4.80;;
19897;SDS011;10111;50.814;4.572;2023-04-10T04:16:26;6.90;;;5.47;;
19897;SDS011;10111;50.814;4.572;2023-04-10T04:18:51;5.83;;;5.17;;
19897;SDS011;10111;50.814;4.572;2023-04-10T04:21:17;6.57;;;5.43;;
19897;SDS011;10111;50.814;4.572;2023-04-10T04:23:43;8.80;;;5.90;;
19897;SDS011;10111;50.814;4.572;2023-04-10T04:26:08;7.60;;;5.67;;
19897;SDS011;10111;50.814;4.572;2023-04-10T04:28:34;6.67;;;5.13;;
19897;SDS011;10111;50.814;4.572;2023-04-10T04:31:00;6.00;;;5.40;;
19897;SDS011;10111;50.814;4.572;2023-04-10T04:33:26;7.47;;;5.60;;
19897;SDS011;10111;50.814;4.572;2023-04-10T04:35:52;7.47;;;5.77;;
19897;SDS011;10111;50.814;4.572;2023-04-10T04:38:17;8.73;;;5.93;;
19897;SDS011;10111;50.814;4.572;2023-04-10T04:40:44;7.37;;;5.83;;
19897;SDS011;10111;50.814;4.572;2023-04-10T04:43:10;8.77;;;6.47;;
19897;SDS011;10111;50.814;4.572;2023-04-10T04:45:35;7.20;;;5.50;;
19897;SDS011;10111;50.814;4.572;2023-04-10T04:48:01;6.80;;;5.33;;
19897;SDS011;10111;50.814;4.572;2023-04-10T04:50:27;7.57;;;5.77;;
19897;SDS011;10111;50.814;4.572;2023-04-10T04:52:52;7.27;;;5.93;;
19897;SDS011;10111;50.814;4.572;2023-04-10T04:55:18;7.10;;;5.97;;
19897;SDS011;10111;50.814;4.572;2023-04-10T04:57:44;7.43;;;5.67;;
19897;SDS011;10111;50.814;4.572;2023-04-10T05:00:09;7.03;;;6.00;;
19897;SDS011;10111;50.814;4.572;2023-04-10T05:02:35;7.83;;;5.50;;
19897;SDS011;10111;50.814;4.572;2023-04-10T05:05:01;7.30;;;5.77;;
19897;SDS011;10111;50.814;4.572;2023-04-10T05:07:27;7.07;;;6.00;;
19897;SDS011;10111;50.814;4.572;2023-04-10T05:09:53;7.93;;;6.20;;
19897;SDS011;10111;50.814;4.572;2023-04-10T05:12:19;6.67;;;5.00;;
19897;SDS011;10111;50.814;4.572;2023-04-10T05:14:45;7.83;;;5.83;;
19897;SDS011;10111;50.814;4.572;2023-04-10T05:17:10;6.53;;;5.57;;
19897;SDS011;10111;50.814;4.572;2023-04-10T05:19:36;7.47;;;5.83;;
19897;SDS011;10111;50.814;4.572;2023-04-10T05:22:02;8.80;;;5.47;;
19897;SDS011;10111;50.814;4.572;2023-04-10T05:24:27;8.50;;;5.03;;
19897;SDS011;10111;50.814;4.572;2023-04-10T05:26:53;7.10;;;5.17;;
19897;SDS011;10111;50.814;4.572;2023-04-10T05:29:18;8.30;;;6.47;;
19897;SDS011;10111;50.814;4.572;2023-04-10T05:31:44;7.13;;;5.80;;
19897;SDS011;10111;50.814;4.572;2023-04-10T05:34:10;8.57;;;6.13;;
19897;SDS011;10111;50.814;4.572;2023-04-10T05:36:36;6.87;;;5.90;;
19897;SDS011;10111;50.814;4.572;2023-04-10T05:39:02;8.63;;;6.60;;
19897;SDS011;10111;50.814;4.572;2023-04-10T05:41:27;8.70;;;5.70;;
19897;SDS011;10111;50.814;4.572;2023-04-10T05:43:53;7.83;;;6.03;;
19897;SDS011;10111;50.814;4.572;2023-04-10T05:46:19;7.70;;;6.10;;
19897;SDS011;10111;50.814;4.572;2023-04-10T05:48:44;7.70;;;5.87;;
19897;SDS011;10111;50.814;4.572;2023-04-10T05:51:10;7.23;;;6.20;;
19897;SDS011;10111;50.814;4.572;2023-04-10T05:53:36;10.37;;;6.77;;
19897;SDS011;10111;50.814;4.572;2023-04-10T05:56:01;10.10;;;6.60;;
19897;SDS011;10111;50.814;4.572;2023-04-10T05:58:27;8.53;;;5.83;;
19897;SDS011;10111;50.814;4.572;2023-04-10T06:00:53;7.07;;;5.93;;
19897;SDS011;10111;50.814;4.572;2023-04-10T06:03:20;9.53;;;5.77;;
19897;SDS011;10111;50.814;4.572;2023-04-10T06:05:46;6.40;;;5.67;;
19897;SDS011;10111;50.814;4.572;2023-04-10T06:08:11;8.30;;;6.23;;
19897;SDS011;10111;50.814;4.572;2023-04-10T06:10:37;7.80;;;6.43;;
19897;SDS011;10111;50.814;4.572;2023-04-10T06:13:03;7.13;;;6.13;;
19897;SDS011;10111;50.814;4.572;2023-04-10T06:15:28;9.13;;;6.43;;
19897;SDS011;10111;50.814;4.572;2023-04-10T06:17:54;7.70;;;5.53;;
19897;SDS011;10111;50.814;4.572;2023-04-10T06:20:20;7.43;;;5.57;;
19897;SDS011;10111;50.814;4.572;2023-04-10T06:22:45;6.83;;;5.20;;
19897;SDS011;10111;50.814;4.572;2023-04-10T06:25:11;7.90;;;6.17;;
19897;SDS011;10111;50.814;4.572;2023-04-10T06:27:37;8.43;;;5.33;;
19897;SDS011;10111;50.814;4.572;2023-04-10T06:30:03;8.17;;;5.20;;
19897;SDS011;10111;50.814;4.572;2023-04-10T06:32:30;7.00;;;5.70;;
19897;SDS011;10111;50.814;4.572;2023-04-10T06:34:55;6.23;;;5.20;;
19897;SDS011;10111;50.814;4.572;2023-04-10T06:37:30;10.50;;;6.33;;
19897;SDS011;10111;50.814;4.572;2023-04-10T06:40:04;7.60;;;5.40;;
19897;SDS011;10111;50.814;4.572;2023-04-10T06:42:37;7.70;;;5.53;;
19897;SDS011;10111;50.814;4.572;2023-04-10T06:45:03;7.67;;;5.37;;
19897;SDS011;10111;50.814;4.572;2023-04-10T06:47:29;5.90;;;4.93;;
19897;SDS011;10111;50.814;4.572;2023-04-10T06:49:58;8.30;;;5.47;;
19897;SDS011;10111;50.814;4.572;2023-04-10T06:52:23;6.40;;;5.67;;
19897;SDS011;10111;50.814;4.572;2023-04-10T06:54:49;7.87;;;5.27;;
19897;SDS011;10111;50.814;4.572;2023-04-10T06:57:15;5.70;;;5.00;;
19897;SDS011;10111;50.814;4.572;2023-04-10T06:59:41;6.60;;;5.50;;
19897;SDS011;10111;50.814;4.572;2023-04-10T07:02:07;6.03;;;5.43;;
19897;SDS011;10111;50.814;4.572;2023-04-10T07:04:32;6.07;;;5.00;;
19897;SDS011;10111;50.814;4.572;2023-04-10T07:06:58;6.57;;;5.37;;
19897;SDS011;10111;50.814;4.572;2023-04-10T07:09:24;6.53;;;4.93;;
19897;SDS011;10111;50.814;4.572;2023-04-10T07:11:50;8.50;;;5.67;;
19897;SDS011;10111;50.814;4.572;2023-04-10T07:14:16;6.20;;;5.57;;
19897;SDS011;10111;50.814;4.572;2023-04-10T07:16:42;6.50;;;5.40;;
19897;SDS011;10111;50.814;4.572;2023-04-10T07:19:08;8.00;;;5.97;;
19897;SDS011;10111;50.814;4.572;2023-04-10T07:21:33;5.13;;;4.47;;
19897;SDS011;10111;50.814;4.572;2023-04-10T07:23:59;6.00;;;5.23;;
19897;SDS011;10111;50.814;4.572;2023-04-10T07:26:25;6.80;;;5.60;;
19897;SDS011;10111;50.814;4.572;2023-04-10T07:28:51;6.90;;;5.00;;
19897;SDS011;10111;50.814;4.572;2023-04-10T07:31:16;10.07;;;5.67;;
19897;SDS011;10111;50.814;4.572;2023-04-10T07:33:43;6.70;;;4.60;;
19897;SDS011;10111;50.814;4.572;2023-04-10T07:36:09;6.53;;;4.67;;
19897;SDS011;10111;50.814;4.572;2023-04-10T07:38:35;7.17;;;5.37;;
19897;SDS011;10111;50.814;4.572;2023-04-10T07:41:01;5.50;;;4.90;;
19897;SDS011;10111;50.814;4.572;2023-04-10T07:43:27;6.63;;;4.97;;
19897;SDS011;10111;50.814;4.572;2023-04-10T07:45:54;6.60;;;4.63;;
19897;SDS011;10111;50.814;4.572;2023-04-10T07:48:20;7.67;;;4.97;;
19897;SDS011;10111;50.814;4.572;2023-04-10T07:50:46;5.13;;;4.60;;
19897;SDS011;10111;50.814;4.572;2023-04-10T07:53:12;7.20;;;5.37;;
19897;SDS011;10111;50.814;4.572;2023-04-10T07:55:38;6.27;;;5.47;;
19897;SDS011;10111;50.814;4.572;2023-04-10T07:58:04;5.97;;;5.00;;
19897;SDS011;10111;50.814;4.572;2023-04-10T08:00:30;5.20;;;4.70;;
19897;SDS011;10111;50.814;4.572;2023-04-10T08:02:56;9.60;;;5.13;;
19897;SDS011;10111;50.814;4.572;2023-04-10T08:05:22;4.60;;;4.03;;
19897;SDS011;10111;50.814;4.572;2023-04-10T08:07:48;7.57;;;4.50;;
19897;SDS011;10111;50.814;4.572;2023-04-10T08:10:13;5.80;;;5.17;;
19897;SDS011;10111;50.814;4.572;2023-04-10T08:12:39;5.83;;;5.17;;
19897;SDS011;10111;50.814;4.572;2023-04-10T08:15:05;5.97;;;4.87;;
19897;SDS011;10111;50.814;4.572;2023-04-10T08:17:31;6.90;;;5.30;;
19897;SDS011;10111;50.814;4.572;2023-04-10T08:19:57;6.20;;;5.00;;
19897;SDS011;10111;50.814;4.572;2023-04-10T08:22:22;5.37;;;4.70;;
19897;SDS011;10111;50.814;4.572;2023-04-10T08:24:48;5.03;;;4.47;;
19897;SDS011;10111;50.814;4.572;2023-04-10T08:27:13;5.87;;;4.83;;
19897;SDS011;10111;50.814;4.572;2023-04-10T08:29:40;9.80;;;5.33;;
19897;SDS011;10111;50.814;4.572;2023-04-10T08:32:06;6.47;;;5.33;;
19897;SDS011;10111;50.814;4.572;2023-04-10T08:34:32;6.43;;;4.93;;
19897;SDS011;10111;50.814;4.572;2023-04-10T08:36:58;8.63;;;5.83;;
19897;SDS011;10111;50.814;4.572;2023-04-10T08:39:23;6.80;;;5.13;;
19897;SDS011;10111;50.814;4.572;2023-04-10T08:41:49;9.17;;;5.90;;
19897;SDS011;10111;50.814;4.572;2023-04-10T08:44:15;8.77;;;6.17;;
19897;SDS011;10111;50.814;4.572;2023-04-10T08:46:42;5.90;;;5.27;;
19897;SDS011;10111;50.814;4.572;2023-04-10T08:49:10;5.23;;;4.50;;
19897;SDS011;10111;50.814;4.572;2023-04-10T08:51:54;6.53;;;5.20;;
19897;SDS011;10111;50.814;4.572;2023-04-10T08:54:32;5.53;;;4.97;;
19897;SDS011;10111;50.814;4.572;2023-04-10T08:57:01;6.40;;;4.63;;
19897;SDS011;10111;50.814;4.572;2023-04-10T08:59:30;7.30;;;5.37;;
19897;SDS011;10111;50.814;4.572;2023-04-10T09:01:57;6.63;;;5.43;;
19897;SDS011;10111;50.814;4.572;2023-04-10T09:04:23;5.60;;;4.60;;
19897;SDS011;10111;50.814;4.572;2023-04-10T09:06:51;5.77;;;5.27;;
19897;SDS011;10111;50.814;4.572;2023-04-10T09:09:17;5.43;;;4.93;;
19897;SDS011;10111;50.814;4.572;2023-04-10T09:14:23;6.60;;;5.40;;
19897;SDS011;10111;50.814;4.572;2023-04-10T09:16:50;5.80;;;5.17;;
19897;SDS011;10111;50.814;4.572;2023-04-10T09:19:29;7.20;;;5.37;;
19897;SDS011;10111;50.814;4.572;2023-04-10T09:21:56;12.60;;;5.23;;
19897;SDS011;10111;50.814;4.572;2023-04-10T09:24:22;6.00;;;4.90;;
19897;SDS011;10111;50.814;4.572;2023-04-10T09:26:48;4.73;;;4.23;;
19897;SDS011;10111;50.814;4.572;2023-04-10T09:29:14;7.03;;;5.00;;
19897;SDS011;10111;50.814;4.572;2023-04-10T09:31:43;5.87;;;4.40;;
19897;SDS011;10111;50.814;4.572;2023-04-10T09:34:13;5.13;;;4.63;;
19897;SDS011;10111;50.814;4.572;2023-04-10T09:36:44;5.90;;;4.73;;
19897;SDS011;10111;50.814;4.572;2023-04-10T09:39:20;6.80;;;5.07;;
19897;SDS011;10111;50.814;4.572;2023-04-10T09:44:15;5.53;;;4.73;;
19897;SDS011;10111;50.814;4.572;2023-04-10T09:46:42;5.50;;;5.00;;
19897;SDS011;10111;50.814;4.572;2023-04-10T09:49:08;7.53;;;5.30;;
19897;SDS011;10111;50.814;4.572;2023-04-10T09:51:34;5.87;;;5.27;;
19897;SDS011;10111;50.814;4.572;2023-04-10T09:54:01;6.10;;;4.13;;
19897;SDS011;10111;50.814;4.572;2023-04-10T09:56:27;5.90;;;5.10;;
19897;SDS011;10111;50.814;4.572;2023-04-10T09:58:58;4.33;;;3.93;;
19897;SDS011;10111;50.814;4.572;2023-04-10T10:01:27;5.30;;;4.80;;
19897;SDS011;10111;50.814;4.572;2023-04-10T10:03:58;7.07;;;4.73;;
19897;SDS011;10111;50.814;4.572;2023-04-10T10:06:29;5.97;;;3.90;;
19897;SDS011;10111;50.814;4.572;2023-04-10T10:09:03;5.50;;;4.57;;
19897;SDS011;10111;50.814;4.572;2023-04-10T10:11:31;4.80;;;4.07;;
19897;SDS011;10111;50.814;4.572;2023-04-10T10:13:59;7.50;;;4.93;;
19897;SDS011;10111;50.814;4.572;2023-04-10T10:16:33;6.77;;;4.83;;
19897;SDS011;10111;50.814;4.572;2023-04-10T10:19:20;6.30;;;4.87;;
19897;SDS011;10111;50.814;4.572;2023-04-10T10:21:51;5.37;;;4.17;;
19897;SDS011;10111;50.814;4.572;2023-04-10T10:24:19;8.63;;;3.93;;
19897;SDS011;10111;50.814;4.572;2023-04-10T10:26:47;5.47;;;4.57;;
19897;SDS011;10111;50.814;4.572;2023-04-10T10:29:15;6.70;;;4.23;;
19897;SDS011;10111;50.814;4.572;2023-04-10T10:31:42;5.53;;;4.40;;
19897;SDS011;10111;50.814;4.572;2023-04-10T10:34:10;4.73;;;4.30;;
19897;SDS011;10111;50.814;4.572;2023-04-10T10:36:35;4.80;;;4.30;;
19897;SDS011;10111;50.814;4.572;2023-04-10T10:39:20;4.83;;;4.27;;
19897;SDS011;10111;50.814;4.572;2023-04-10T10:44:55;4.37;;;4.00;;
19897;SDS011;10111;50.814;4.572;2023-04-10T10:47:42;6.47;;;3.90;;
19897;SDS011;10111;50.814;4.572;2023-04-10T10:50:11;5.33;;;4.57;;
19897;SDS011;10111;50.814;4.572;2023-04-10T10:58:06;4.13;;;3.73;;
19897;SDS011;10111;50.814;4.572;2023-04-10T11:01:18;5.00;;;4.10;;
19897;SDS011;10111;50.814;4.572;2023-04-10T11:05:50;4.00;;;3.60;;
19897;SDS011;10111;50.814;4.572;2023-04-10T11:08:42;4.10;;;3.70;;
19897;SDS011;10111;50.814;4.572;2023-04-10T11:11:12;4.27;;;3.80;;
19897;SDS011;10111;50.814;4.572;2023-04-10T11:16:14;4.20;;;3.80;;
19897;SDS011;10111;50.814;4.572;2023-04-10T11:21:21;4.20;;;3.80;;
19897;SDS011;10111;50.814;4.572;2023-04-10T11:29:04;5.43;;;3.70;;
19897;SDS011;10111;50.814;4.572;2023-04-10T11:31:36;6.23;;;4.17;;
19897;SDS011;10111;50.814;4.572;2023-04-10T11:34:03;5.07;;;3.57;;
19897;SDS011;10111;50.814;4.572;2023-04-10T11:36:32;4.60;;;3.90;;
19897;SDS011;10111;50.814;4.572;2023-04-10T11:39:03;3.77;;;3.20;;
19897;SDS011;10111;50.814;4.572;2023-04-10T11:41:32;4.27;;;3.10;;
19897;SDS011;10111;50.814;4.572;2023-04-10T11:44:09;3.57;;;3.27;;
19897;SDS011;10111;50.814;4.572;2023-04-10T11:46:52;4.80;;;3.40;;
19897;SDS011;10111;50.814;4.572;2023-04-10T11:49:22;4.63;;;3.37;;
19897;SDS011;10111;50.814;4.572;2023-04-10T11:51:50;2.60;;;2.40;;
19897;SDS011;10111;50.814;4.572;2023-04-10T11:54:23;5.77;;;3.77;;
19897;SDS011;10111;50.814;4.572;2023-04-10T11:57:00;3.30;;;2.50;;
19897;SDS011;10111;50.814;4.572;2023-04-10T11:59:26;4.73;;;3.00;;
19897;SDS011;10111;50.814;4.572;2023-04-10T12:01:53;3.23;;;2.93;;
19897;SDS011;10111;50.814;4.572;2023-04-10T12:04:31;3.20;;;2.90;;
19897;SDS011;10111;50.814;4.572;2023-04-10T12:06:57;3.17;;;2.80;;
19897;SDS011;10111;50.814;4.572;2023-04-10T12:09:23;4.00;;;2.70;;
19897;SDS011;10111;50.814;4.572;2023-04-10T12:14:43;6.53;;;3.47;;
19897;SDS011;10111;50.814;4.572;2023-04-10T12:17:09;4.53;;;3.40;;
19897;SDS011;10111;50.814;4.572;2023-04-10T12:19:37;3.93;;;3.27;;
19897;SDS011;10111;50.814;4.572;2023-04-10T12:22:03;4.70;;;3.13;;
19897;SDS011;10111;50.814;4.572;2023-04-10T12:24:46;4.77;;;3.60;;
19897;SDS011;10111;50.814;4.572;2023-04-10T12:27:20;3.50;;;2.70;;
19897;SDS011;10111;50.814;4.572;2023-04-10T12:29:47;3.17;;;2.87;;
19897;SDS011;10111;50.814;4.572;2023-04-10T12:32:14;3.63;;;2.93;;
19897;SDS011;10111;50.814;4.572;2023-04-10T12:34:40;3.30;;;3.00;;
19897;SDS011;10111;50.814;4.572;2023-04-10T12:37:07;3.97;;;2.83;;
19897;SDS011;10111;50.814;4.572;2023-04-10T12:39:34;3.23;;;2.90;;
19897;SDS011;10111;50.814;4.572;2023-04-10T12:42:16;3.20;;;2.67;;
19897;SDS011;10111;50.814;4.572;2023-04-10T12:44:53;3.73;;;2.73;;
19897;SDS011;10111;50.814;4.572;2023-04-10T12:47:19;2.77;;;2.57;;
19897;SDS011;10111;50.814;4.572;2023-04-10T12:52:34;5.93;;;2.70;;
19897;SDS011;10111;50.814;4.572;2023-04-10T12:57:35;3.50;;;2.90;;
19897;SDS011;10111;50.814;4.572;2023-04-10T13:00:01;2.70;;;2.50;;
19897;SDS011;10111;50.814;4.572;2023-04-10T13:02:27;2.93;;;2.70;;
19897;SDS011;10111;50.814;4.572;2023-04-10T13:04:53;2.97;;;2.70;;
19897;SDS011;10111;50.814;4.572;2023-04-10T13:07:19;3.23;;;2.50;;
19897;SDS011;10111;50.814;4.572;2023-04-10T13:09:45;3.43;;;3.13;;
19897;SDS011;10111;50.814;4.572;2023-04-10T13:12:11;3.40;;;3.10;;
19897;SDS011;10111;50.814;4.572;2023-04-10T13:14:37;4.17;;;2.70;;
19897;SDS011;10111;50.814;4.572;2023-04-10T13:17:03;4.50;;;2.47;;
19897;SDS011;10111;50.814;4.572;2023-04-10T13:19:28;2.97;;;2.77;;
19897;SDS011;10111;50.814;4.572;2023-04-10T13:21:54;4.63;;;2.80;;
19897;SDS011;10111;50.814;4.572;2023-04-10T13:24:20;3.53;;;2.77;;
19897;SDS011;10111;50.814;4.572;2023-04-10T13:26:46;3.80;;;2.80;;
19897;SDS011;10111;50.814;4.572;2023-04-10T13:29:11;2.77;;;2.37;;
19897;SDS011;10111;50.814;4.572;2023-04-10T13:31:37;2.50;;;2.30;;
19897;SDS011;10111;50.814;4.572;2023-04-10T13:34:02;5.37;;;2.90;;
19897;SDS011;10111;50.814;4.572;2023-04-10T13:36:28;2.37;;;2.10;;
19897;SDS011;10111;50.814;4.572;2023-04-10T13:38:55;3.63;;;2.37;;
19897;SDS011;10111;50.814;4.572;2023-04-10T13:41:21;2.77;;;2.57;;
19897;SDS011;10111;50.814;4.572;2023-04-10T13:43:47;3.90;;;2.30;;
19897;SDS011;10111;50.814;4.572;2023-04-10T13:46:13;4.50;;;3.30;;
19897;SDS011;10111;50.814;4.572;2023-04-10T13:48:39;4.90;;;2.70;;
19897;SDS011;10111;50.814;4.572;2023-04-10T13:51:05;2.73;;;2.47;;
19897;SDS011;10111;50.814;4.572;2023-04-10T13:53:32;2.83;;;2.30;;
19897;SDS011;10111;50.814;4.572;2023-04-10T13:55:58;4.20;;;2.50;;
19897;SDS011;10111;50.814;4.572;2023-04-10T13:58:23;3.33;;;2.53;;
19897;SDS011;10111;50.814;4.572;2023-04-10T14:00:52;2.60;;;2.40;;
19897;SDS011;10111;50.814;4.572;2023-04-10T14:03:18;2.90;;;2.67;;
19897;SDS011;10111;50.814;4.572;2023-04-10T14:05:43;4.43;;;2.53;;
19897;SDS011;10111;50.814;4.572;2023-04-10T14:08:09;2.57;;;2.33;;
19897;SDS011;10111;50.814;4.572;2023-04-10T14:10:38;3.00;;;2.70;;
19897;SDS011;10111;50.814;4.572;2023-04-10T14:13:04;2.53;;;2.33;;
19897;SDS011;10111;50.814;4.572;2023-04-10T14:15:31;3.97;;;2.33;;
19897;SDS011;10111;50.814;4.572;2023-04-10T14:17:57;4.77;;;2.57;;
19897;SDS011;10111;50.814;4.572;2023-04-10T14:20:22;2.80;;;2.57;;
19897;SDS011;10111;50.814;4.572;2023-04-10T14:22:48;3.13;;;2.83;;
19897;SDS011;10111;50.814;4.572;2023-04-10T14:25:14;3.80;;;2.37;;
19897;SDS011;10111;50.814;4.572;2023-04-10T14:27:40;3.23;;;2.50;;
19897;SDS011;10111;50.814;4.572;2023-04-10T14:30:07;3.23;;;3.00;;
19897;SDS011;10111;50.814;4.572;2023-04-10T14:32:33;5.23;;;2.60;;
19897;SDS011;10111;50.814;4.572;2023-04-10T14:34:59;3.27;;;2.97;;
19897;SDS011;10111;50.814;4.572;2023-04-10T14:37:25;2.70;;;2.43;;
19897;SDS011;10111;50.814;4.572;2023-04-10T14:39:50;3.50;;;2.57;;
19897;SDS011;10111;50.814;4.572;2023-04-10T14:42:16;2.37;;;2.17;;
19897;SDS011;10111;50.814;4.572;2023-04-10T14:44:41;3.87;;;2.23;;
19897;SDS011;10111;50.814;4.572;2023-04-10T14:47:07;3.20;;;2.40;;
19897;SDS011;10111;50.814;4.572;2023-04-10T14:49:33;3.10;;;2.40;;
19897;SDS011;10111;50.814;4.572;2023-04-10T14:51:58;2.50;;;2.20;;
19897;SDS011;10111;50.814;4.572;2023-04-10T14:54:24;2.43;;;2.10;;
19897;SDS011;10111;50.814;4.572;2023-04-10T14:56:50;3.03;;;2.70;;
19897;SDS011;10111;50.814;4.572;2023-04-10T14:59:16;3.77;;;2.43;;
19897;SDS011;10111;50.814;4.572;2023-04-10T15:01:42;3.10;;;2.80;;
19897;SDS011;10111;50.814;4.572;2023-04-10T15:04:08;5.57;;;3.13;;
19897;SDS011;10111;50.814;4.572;2023-04-10T15:06:33;3.10;;;2.37;;
19897;SDS011;10111;50.814;4.572;2023-04-10T15:08:59;5.03;;;3.10;;
19897;SDS011;10111;50.814;4.572;2023-04-10T15:11:25;3.40;;;2.77;;
19897;SDS011;10111;50.814;4.572;2023-04-10T15:13:51;3.13;;;2.80;;
19897;SDS011;10111;50.814;4.572;2023-04-10T15:16:17;3.53;;;2.20;;
19897;SDS011;10111;50.814;4.572;2023-04-10T15:18:45;3.73;;;2.23;;
19897;SDS011;10111;50.814;4.572;2023-04-10T15:21:12;2.93;;;2.20;;
19897;SDS011;10111;50.814;4.572;2023-04-10T15:23:38;3.27;;;2.03;;
19897;SDS011;10111;50.814;4.572;2023-04-10T15:26:04;3.07;;;2.40;;
19897;SDS011;10111;50.814;4.572;2023-04-10T15:28:35;5.00;;;2.13;;